Wetterdaten: Woche 23.11.09 - 29.11.09 (KW48)
Datum Zeit Temp. A. Feuchte A. Luftdruck Regen Wind Richtung Taupunkt Windchill Windben
23.11.2009 00:00 3,6 C 93 % 1018,3 hPa 0,0 l/m 1,0 km/h S-SO 2,6 C 3,6 C 6,8 km/h
23.11.2009 01:00 3,2 C 93 % 1018,2 hPa 0,0 l/m 1,6 km/h S 2,2 C 3,2 C 7,6 km/h
23.11.2009 02:00 3,3 C 93 % 1018,0 hPa 0,0 l/m 0,1 km/h N 2,3 C 3,3 C 2,8 km/h
23.11.2009 03:00 3,3 C 93 % 1017,5 hPa 0,0 l/m 0,0 km/h N 2,2 C 3,3 C 1,6 km/h
23.11.2009 04:00 3,3 C 93 % 1017,3 hPa 0,0 l/m 0,1 km/h N 2,2 C 3,3 C 3,6 km/h
23.11.2009 05:00 3,6 C 93 % 1017,6 hPa 0,3 l/m 0,3 km/h N 2,6 C 3,6 C 3,6 km/h
23.11.2009 06:00 3,7 C 93 % 1017,9 hPa 0,3 l/m 0,2 km/h N 2,7 C 3,7 C 1,6 km/h
23.11.2009 07:00 4,0 C 93 % 1018,0 hPa 1,0 l/m 0,0 km/h N 2,9 C 4,0 C 0,8 km/h
23.11.2009 08:00 4,6 C 93 % 1018,2 hPa 0,3 l/m 0,0 km/h N 3,5 C 4,6 C 0,8 km/h
23.11.2009 09:00 5,2 C 93 % 1018,2 hPa 0,0 l/m 0,0 km/h N 4,2 C 5,2 C 0,5 km/h
23.11.2009 10:00 6,6 C 94 % 1017,9 hPa 0,0 l/m 0,0 km/h O-NO 5,7 C 6,6 C 3,2 km/h
23.11.2009 11:00 8,4 C 93 % 1017,5 hPa 0,0 l/m 0,8 km/h O 7,3 C 8,4 C 6,4 km/h
23.11.2009 12:00 10,1 C 89 % 1017,0 hPa 0,0 l/m 2,4 km/h O 8,3 C 10,1 C 8,0 km/h
23.11.2009 13:00 13,4 C 54 % 1016,3 hPa 0,0 l/m 8,1 km/h W 4,1 C 12,6 C 25,8 km/h
23.11.2009 14:00 14,1 C 48 % 1015,7 hPa 0,0 l/m 6,4 km/h W-SW 3,3 C 13,7 C 25,8 km/h
23.11.2009 15:00 13,6 C 50 % 1015,7 hPa 0,0 l/m 3,9 km/h W-SW 3,4 C 13,6 C 13,3 km/h
23.11.2009 16:00 11,3 C 66 % 1015,6 hPa 0,0 l/m 2,9 km/h O-SO 5,2 C 11,3 C 10,9 km/h
23.11.2009 17:00 9,4 C 77 % 1015,5 hPa 0,0 l/m 1,4 km/h S-SO 5,6 C 9,4 C 8,9 km/h
23.11.2009 18:00 8,7 C 81 % 1015,2 hPa 0,0 l/m 2,2 km/h S 5,6 C 8,7 C 10,1 km/h
23.11.2009 19:00 8,8 C 78 % 1014,8 hPa 0,0 l/m 1,8 km/h S 5,1 C 8,8 C 9,3 km/h
23.11.2009 20:00 8,8 C 75 % 1014,5 hPa 0,0 l/m 0,4 km/h N 4,5 C 8,8 C 4,0 km/h
23.11.2009 21:00 8,3 C 77 % 1014,4 hPa 0,0 l/m 0,3 km/h N 4,5 C 8,3 C 2,4 km/h
23.11.2009 22:00 7,7 C 78 % 1014,1 hPa 0,0 l/m 0,2 km/h N 4,1 C 7,7 C 3,2 km/h
23.11.2009 23:00 6,8 C 81 % 1013,5 hPa 0,0 l/m 0,1 km/h N 3,8 C 6,8 C 2,0 km/h
24.11.2009 00:00 5,9 C 83 % 1012,9 hPa 0,0 l/m 0,0 km/h N 3,2 C 5,9 C 1,6 km/h
24.11.2009 01:00 6,0 C 86 % 1012,3 hPa 0,0 l/m 0,3 km/h N 3,8 C 6,0 C 3,2 km/h
24.11.2009 02:00 6,7 C 85 % 1012,2 hPa 0,0 l/m 0,2 km/h N 4,3 C 6,7 C 2,4 km/h
24.11.2009 03:00 7,5 C 82 % 1012,2 hPa 0,0 l/m 1,1 km/h S-SO 4,7 C 7,5 C 6,8 km/h
24.11.2009 04:00 7,4 C 79 % 1012,1 hPa 0,0 l/m 0,5 km/h S 4,0 C 7,4 C 4,0 km/h
24.11.2009 05:00 7,8 C 79 % 1012,1 hPa 0,0 l/m 2,3 km/h W-SW 4,4 C 7,7 C 10,1 km/h
24.11.2009 06:00 12,9 C 61 % 1012,3 hPa 0,0 l/m 9,0 km/h SW 5,5 C 11,4 C 24,1 km/h
24.11.2009 07:00 13,2 C 60 % 1012,8 hPa 0,0 l/m 9,5 km/h W-SW 5,6 C 11,4 C 24,6 km/h
24.11.2009 08:00 12,1 C 71 % 1013,8 hPa 1,0 l/m 14,5 km/h W-NW 6,9 C 8,2 C 35,4 km/h
24.11.2009 09:00 11,5 C 75 % 1014,3 hPa 0,0 l/m 6,9 km/h W 7,2 C 11,0 C 21,7 km/h
24.11.2009 10:00 13,5 C 66 % 1014,6 hPa 0,3 l/m 10,5 km/h W 7,3 C 11,2 C 33,0 km/h
24.11.2009 11:00 14,2 C 62 % 1014,6 hPa 0,0 l/m 12,1 km/h W 6,9 C 11,3 C 37,8 km/h
24.11.2009 12:00 14,0 C 62 % 1014,8 hPa 0,0 l/m 14,5 km/h NW 6,8 C 10,2 C 37,0 km/h
24.11.2009 13:00 13,7 C 65 % 1015,1 hPa 0,0 l/m 12,9 km/h W 7,2 C 10,4 C 37,0 km/h
24.11.2009 14:00 14,2 C 62 % 1014,7 hPa 0,0 l/m 11,3 km/h W 6,9 C 11,7 C 31,4 km/h
24.11.2009 15:00 14,5 C 58 % 1014,2 hPa 0,0 l/m 8,0 km/h W 6,2 C 13,6 C 26,5 km/h
24.11.2009 16:00 14,2 C 63 % 1015,0 hPa 0,0 l/m 7,6 km/h W 7,2 C 13,5 C 24,1 km/h
24.11.2009 17:00 13,7 C 67 % 1015,3 hPa 0,0 l/m 5,1 km/h W-SW 7,7 C 13,6 C 16,5 km/h
24.11.2009 18:00 13,2 C 74 % 1015,6 hPa 0,0 l/m 8,1 km/h W 8,7 C 12,2 C 21,7 km/h
24.11.2009 19:00 13,8 C 72 % 1015,3 hPa 0,0 l/m 11,6 km/h W 8,9 C 11,1 C 28,6 km/h
24.11.2009 20:00 14,4 C 69 % 1015,3 hPa 0,0 l/m 14,8 km/h W 8,7 C 10,5 C 40,6 km/h
24.11.2009 21:00 14,3 C 68 % 1015,6 hPa 0,0 l/m 14,3 km/h W-NW 8,5 C 10,6 C 34,6 km/h
24.11.2009 22:00 14,1 C 68 % 1016,1 hPa 0,0 l/m 16,3 km/h NW 8,2 C 9,7 C 37,8 km/h
24.11.2009 23:00 14,1 C 66 % 1016,6 hPa 0,0 l/m 18,3 km/h W 7,8 C 9,1 C 38,6 km/h
25.11.2009 00:00 14,0 C 65 % 1016,8 hPa 0,0 l/m 15,9 km/h W 7,6 C 9,7 C 36,2 km/h
25.11.2009 01:00 13,8 C 66 % 1017,1 hPa 0,0 l/m 12,1 km/h W-SW 7,4 C 10,8 C 32,2 km/h
25.11.2009 02:00 14,1 C 62 % 1017,4 hPa 0,0 l/m 13,0 km/h W 6,8 C 10,8 C 32,2 km/h
25.11.2009 03:00 14,0 C 59 % 1017,3 hPa 0,0 l/m 13,9 km/h W-SW 6,2 C 10,4 C 31,8 km/h
25.11.2009 04:00 13,5 C 61 % 1016,7 hPa 0,0 l/m 15,1 km/h W-NW 6,1 C 9,4 C 35,4 km/h
25.11.2009 05:00 13,1 C 63 % 1017,4 hPa 0,0 l/m 7,3 km/h W-SW 6,2 C 12,4 C 26,9 km/h
25.11.2009 06:00 12,6 C 64 % 1017,8 hPa 0,0 l/m 1,6 km/h NW 5,9 C 12,6 C 10,4 km/h
25.11.2009 07:00 10,6 C 68 % 1017,9 hPa 0,0 l/m 0,1 km/h N 4,9 C 10,6 C 2,4 km/h
25.11.2009 08:00 9,3 C 76 % 1018,0 hPa 0,0 l/m 0,2 km/h S 5,3 C 9,3 C 2,4 km/h
25.11.2009 09:00 10,9 C 73 % 1018,0 hPa 0,0 l/m 0,6 km/h N 6,2 C 10,9 C 4,4 km/h
25.11.2009 10:00 12,9 C 64 % 1017,9 hPa 0,0 l/m 0,3 km/h N 6,1 C 12,9 C 2,8 km/h
25.11.2009 11:00 13,9 C 61 % 1017,3 hPa 0,0 l/m 0,9 km/h O 6,4 C 13,9 C 4,4 km/h
25.11.2009 12:00 14,2 C 62 % 1016,5 hPa 0,0 l/m 1,4 km/h O-SO 6,9 C 14,2 C 5,2 km/h
25.11.2009 13:00 14,6 C 61 % 1015,7 hPa 0,0 l/m 1,5 km/h O-SO 7,3 C 14,6 C 4,4 km/h
25.11.2009 14:00 14,9 C 60 % 1015,1 hPa 0,0 l/m 0,8 km/h N 7,1 C 14,9 C 4,4 km/h
25.11.2009 15:00 14,5 C 60 % 1014,9 hPa 0,0 l/m 0,3 km/h N 6,9 C 14,5 C 2,0 km/h
25.11.2009 16:00 12,3 C 66 % 1014,7 hPa 0,0 l/m 0,1 km/h N 6,2 C 12,3 C 2,0 km/h
25.11.2009 17:00 9,5 C 73 % 1014,5 hPa 0,0 l/m 0,0 km/h N 4,9 C 9,5 C 0,8 km/h
25.11.2009 18:00 7,5 C 79 % 1014,4 hPa 0,0 l/m 0,0 km/h N 4,1 C 7,5 C 0,8 km/h
25.11.2009 19:00 5,6 C 80 % 1014,0 hPa 0,0 l/m 0,0 km/h N 2,5 C 5,6 C 0,0 km/h
25.11.2009 20:00 4,2 C 84 % 1013,5 hPa 0,0 l/m 0,0 km/h N 1,8 C 4,2 C 1,2 km/h
25.11.2009 21:00 3,1 C 86 % 1013,3 hPa 0,0 l/m 0,0 km/h N 1,0 C 3,1 C 0,4 km/h
25.11.2009 22:00 2,5 C 87 % 1012,9 hPa 0,0 l/m 0,0 km/h N 0,5 C 2,5 C 0,4 km/h
25.11.2009 23:00 1,7 C 88 % 1012,5 hPa 0,0 l/m 0,0 km/h N -0,1 C 1,7 C 0,4 km/h
26.11.2009 00:00 1,3 C 89 % 1012,1 hPa 0,0 l/m 0,0 km/h N -0,4 C 1,3 C 0,0 km/h
26.11.2009 01:00 1,5 C 90 % 1012,1 hPa 0,0 l/m 0,2 km/h N 0,0 C 1,5 C 1,2 km/h
26.11.2009 02:00 4,6 C 92 % 1012,3 hPa 0,0 l/m 0,7 km/h NW 3,3 C 4,6 C 3,2 km/h
26.11.2009 03:00 5,8 C 91 % 1013,2 hPa 0,0 l/m 5,8 km/h N-NO 4,5 C 5,2 C 13,7 km/h
26.11.2009 04:00 5,6 C 91 % 1013,0 hPa 0,0 l/m 6,7 km/h N 4,2 C 4,7 C 15,7 km/h
26.11.2009 05:00 5,5 C 90 % 1013,2 hPa 0,0 l/m 1,4 km/h O-NO 3,9 C 5,5 C 4,4 km/h
26.11.2009 06:00 4,9 C 89 % 1014,2 hPa 0,0 l/m 0,6 km/h N 3,2 C 4,9 C 5,2 km/h
26.11.2009 07:00 4,6 C 89 % 1015,0 hPa 0,0 l/m 0,2 km/h N 3,0 C 4,6 C 3,2 km/h
26.11.2009 08:00 4,6 C 89 % 1015,7 hPa 0,0 l/m 0,1 km/h N 3,0 C 4,6 C 2,0 km/h
26.11.2009 09:00 5,4 C 90 % 1016,2 hPa 0,0 l/m 0,7 km/h O 3,9 C 5,4 C 4,0 km/h
26.11.2009 10:00 6,6 C 89 % 1016,7 hPa 0,0 l/m 1,3 km/h O-SO 4,9 C 6,6 C 5,2 km/h
26.11.2009 11:00 8,3 C 83 % 1016,9 hPa 0,0 l/m 0,4 km/h SO 5,6 C 8,3 C 3,6 km/h
26.11.2009 12:00 10,6 C 74 % 1016,5 hPa 0,0 l/m 0,8 km/h SO 6,0 C 10,6 C 4,4 km/h
26.11.2009 13:00 12,7 C 64 % 1016,1 hPa 0,0 l/m 2,3 km/h W 5,9 C 12,7 C 10,9 km/h
26.11.2009 14:00 12,6 C 64 % 1015,8 hPa 0,0 l/m 2,5 km/h O-SO 5,9 C 12,6 C 8,4 km/h
26.11.2009 15:00 11,0 C 72 % 1016,1 hPa 0,0 l/m 0,9 km/h S 6,0 C 11,0 C 5,6 km/h
26.11.2009 16:00 10,0 C 69 % 1016,5 hPa 0,0 l/m 0,0 km/h N 4,6 C 10,0 C 1,2 km/h
26.11.2009 17:00 7,2 C 74 % 1016,7 hPa 0,0 l/m 0,0 km/h N 2,9 C 7,2 C 0,8 km/h
26.11.2009 18:00 5,7 C 79 % 1016,9 hPa 0,0 l/m 0,0 km/h N 2,4 C 5,7 C 1,2 km/h
26.11.2009 19:00 5,2 C 82 % 1017,0 hPa 0,0 l/m 0,1 km/h N 2,4 C 5,2 C 2,8 km/h
26.11.2009 20:00 4,7 C 82 % 1017,1 hPa 0,0 l/m 0,0 km/h N 1,8 C 4,7 C 0,8 km/h
26.11.2009 21:00 4,2 C 84 % 1017,0 hPa 0,0 l/m 0,1 km/h N 1,7 C 4,2 C 1,2 km/h
26.11.2009 22:00 4,3 C 85 % 1016,5 hPa 0,0 l/m 0,0 km/h N 2,0 C 4,3 C 1,2 km/h
26.11.2009 23:00 4,1 C 85 % 1016,4 hPa 0,0 l/m 0,1 km/h N 1,8 C 4,1 C 0,8 km/h
27.11.2009 00:00 2,7 C 84 % 1016,0 hPa 0,0 l/m 0,0 km/h N 0,3 C 2,7 C 0,0 km/h
27.11.2009 01:00 1,6 C 85 % 1015,7 hPa 0,0 l/m 0,0 km/h N -0,7 C 1,6 C 0,0 km/h
27.11.2009 02:00 0,8 C 87 % 1015,6 hPa 0,0 l/m 0,0 km/h N -1,2 C 0,8 C 0,8 km/h
27.11.2009 03:00 0,5 C 88 % 1014,8 hPa 0,0 l/m 0,0 km/h N -1,3 C 0,5 C 0,4 km/h
27.11.2009 04:00 0,2 C 89 % 1014,7 hPa 0,0 l/m 0,0 km/h N -1,5 C 0,2 C 0,8 km/h
27.11.2009 05:00 0,4 C 90 % 1014,6 hPa 0,0 l/m 0,0 km/h N -1,1 C 0,4 C 0,8 km/h
27.11.2009 06:00 0,7 C 90 % 1014,3 hPa 0,0 l/m 0,0 km/h N -0,7 C 0,7 C 1,2 km/h
27.11.2009 07:00 0,7 C 91 % 1014,1 hPa 0,0 l/m 0,0 km/h N -0,6 C 0,7 C 0,4 km/h
27.11.2009 08:00 1,7 C 91 % 1013,8 hPa 0,0 l/m 0,0 km/h N 0,4 C 1,7 C 0,8 km/h
27.11.2009 09:00 2,9 C 92 % 1013,5 hPa 0,0 l/m 1,1 km/h O-SO 1,7 C 2,9 C 4,0 km/h
27.11.2009 10:00 3,9 C 92 % 1013,1 hPa 0,0 l/m 0,3 km/h N 2,7 C 3,9 C 4,0 km/h
27.11.2009 11:00 4,4 C 92 % 1012,4 hPa 0,0 l/m 0,3 km/h N 3,1 C 4,4 C 4,0 km/h
27.11.2009 12:00 4,5 C 92 % 1012,0 hPa 0,0 l/m 0,3 km/h N 3,2 C 4,5 C 2,4 km/h
27.11.2009 13:00 4,8 C 92 % 1011,9 hPa 0,0 l/m 1,1 km/h NO 3,5 C 4,8 C 5,2 km/h
27.11.2009 14:00 5,3 C 92 % 1012,1 hPa 0,0 l/m 1,6 km/h NO 4,0 C 5,3 C 6,0 km/h
27.11.2009 15:00 5,8 C 91 % 1012,4 hPa 0,0 l/m 0,0 km/h N 4,5 C 5,8 C 1,6 km/h
27.11.2009 16:00 5,4 C 90 % 1012,8 hPa 0,0 l/m 0,0 km/h N 4,0 C 5,4 C 0,4 km/h
27.11.2009 17:00 4,0 C 89 % 1013,1 hPa 0,0 l/m 0,0 km/h N 2,4 C 4,0 C 0,4 km/h
27.11.2009 18:00 2,4 C 88 % 1013,2 hPa 0,0 l/m 0,0 km/h N 0,7 C 2,4 C 0,4 km/h
27.11.2009 19:00 1,2 C 89 % 1013,4 hPa 0,0 l/m 0,0 km/h N -0,5 C 1,2 C 0,4 km/h
27.11.2009 20:00 1,2 C 90 % 1013,4 hPa 0,0 l/m 0,0 km/h N -0,3 C 1,2 C 0,4 km/h
27.11.2009 21:00 1,5 C 91 % 1013,4 hPa 0,0 l/m 0,0 km/h N 0,2 C 1,5 C 0,8 km/h
27.11.2009 22:00 2,3 C 91 % 1013,4 hPa 0,0 l/m 0,1 km/h N 1,0 C 2,3 C 0,8 km/h
27.11.2009 23:00 2,8 C 91 % 1013,7 hPa 0,0 l/m 0,2 km/h N 1,5 C 2,8 C 2,4 km/h
28.11.2009 00:00 3,0 C 92 % 1014,2 hPa 0,0 l/m 0,0 km/h N 1,8 C 3,0 C 1,6 km/h
28.11.2009 01:00 3,3 C 92 % 1014,3 hPa 0,0 l/m 0,1 km/h N 2,1 C 3,3 C 1,6 km/h
28.11.2009 02:00 3,7 C 92 % 1014,7 hPa 0,0 l/m 0,2 km/h N 2,5 C 3,7 C 2,4 km/h
28.11.2009 03:00 4,0 C 92 % 1014,3 hPa 0,5 l/m 0,2 km/h N 2,8 C 4,0 C 1,6 km/h
28.11.2009 04:00 4,0 C 92 % 1013,9 hPa 0,0 l/m 0,3 km/h N 2,9 C 4,0 C 2,8 km/h
28.11.2009 05:00 4,1 C 93 % 1013,6 hPa 0,0 l/m 0,0 km/h N 3,1 C 4,1 C 0,4 km/h
28.11.2009 06:00 4,3 C 93 % 1013,9 hPa 0,0 l/m 0,0 km/h N 3,3 C 4,3 C 0,4 km/h
28.11.2009 07:00 4,3 C 93 % 1014,0 hPa 0,0 l/m 0,0 km/h N 3,3 C 4,3 C 0,0 km/h
28.11.2009 08:00 4,5 C 93 % 1014,6 hPa 0,0 l/m 0,1 km/h N 3,5 C 4,5 C 1,2 km/h
28.11.2009 09:00 5,3 C 93 % 1015,2 hPa 0,0 l/m 0,0 km/h N 4,2 C 5,3 C 1,2 km/h
28.11.2009 10:00 6,0 C 93 % 1015,3 hPa 0,0 l/m 0,0 km/h N 4,9 C 6,0 C 0,0 km/h
28.11.2009 11:00 6,9 C 93 % 1014,8 hPa 0,0 l/m 0,0 km/h N 5,9 C 6,9 C 0,4 km/h
28.11.2009 12:00 9,2 C 85 % 1014,2 hPa 0,0 l/m 0,6 km/h N 6,8 C 9,2 C 2,8 km/h
28.11.2009 13:00 9,7 C 76 % 1014,0 hPa 0,0 l/m 0,4 km/h S-SW 5,7 C 9,7 C 4,0 km/h
28.11.2009 14:00 9,9 C 70 % 1013,7 hPa 0,0 l/m 0,7 km/h S-SO 4,6 C 9,9 C 4,4 km/h
28.11.2009 15:00 10,2 C 69 % 1013,7 hPa 0,0 l/m 1,3 km/h S 4,6 C 10,2 C 6,0 km/h
28.11.2009 16:00 8,5 C 72 % 1014,0 hPa 0,0 l/m 0,2 km/h N 3,6 C 8,5 C 3,2 km/h
28.11.2009 17:00 5,8 C 76 % 1014,3 hPa 0,0 l/m 0,0 km/h N 1,9 C 5,8 C 1,2 km/h
28.11.2009 18:00 4,1 C 82 % 1014,2 hPa 0,0 l/m 0,1 km/h N 1,3 C 4,1 C 1,2 km/h
28.11.2009 19:00 2,7 C 83 % 1014,0 hPa 0,0 l/m 0,0 km/h N 0,2 C 2,7 C 0,8 km/h
28.11.2009 20:00 1,7 C 85 % 1013,8 hPa 0,0 l/m 0,0 km/h N -0,5 C 1,7 C 1,2 km/h
28.11.2009 21:00 0,5 C 87 % 1013,8 hPa 0,0 l/m 0,0 km/h N -1,5 C 0,5 C 0,8 km/h
28.11.2009 22:00 -0,2 C 88 % 1013,4 hPa 0,0 l/m 0,0 km/h N -2,0 C -0,2 C 0,8 km/h
28.11.2009 23:00 -0,9 C 88 % 1013,2 hPa 0,0 l/m 0,0 km/h N -2,5 C -0,9 C 0,0 km/h
29.11.2009 00:00 -1,3 C 89 % 1012,8 hPa 0,0 l/m 0,0 km/h N -2,8 C -1,3 C 0,8 km/h
29.11.2009 01:00 -1,5 C 89 % 1012,3 hPa 0,0 l/m 0,0 km/h N -3,1 C -1,5 C 1,2 km/h
29.11.2009 02:00 -1,7 C 90 % 1011,7 hPa 0,0 l/m 0,0 km/h N -3,1 C -1,7 C 0,8 km/h
29.11.2009 03:00 -1,8 C 90 % 1011,0 hPa 0,0 l/m 0,0 km/h N -3,2 C -1,8 C 0,4 km/h
29.11.2009 04:00 -1,7 C 90 % 1010,6 hPa 0,0 l/m 0,3 km/h N -3,0 C -1,7 C 3,2 km/h
29.11.2009 05:00 -0,9 C 91 % 1010,3 hPa 0,0 l/m 0,0 km/h N -2,2 C -0,9 C 1,2 km/h
29.11.2009 06:00 -0,8 C 91 % 1010,1 hPa 0,0 l/m 0,1 km/h N -2,1 C -0,8 C 1,6 km/h
29.11.2009 07:00 -1,1 C 91 % 1010,4 hPa 0,0 l/m 0,0 km/h N -2,3 C -1,1 C 0,4 km/h
29.11.2009 08:00 -0,5 C 92 % 1010,5 hPa 0,0 l/m 0,0 km/h N -1,7 C -0,5 C 0,0 km/h
29.11.2009 09:00 1,7 C 93 % 1010,3 hPa 0,3 l/m 0,4 km/h N 0,7 C 1,7 C 3,2 km/h
29.11.2009 10:00 3,3 C 93 % 1009,9 hPa 0,0 l/m 0,4 km/h N 2,3 C 3,3 C 3,2 km/h
29.11.2009 11:00 5,6 C 91 % 1009,4 hPa 0,0 l/m 0,9 km/h NO 4,1 C 5,6 C 4,4 km/h
29.11.2009 12:00 7,1 C 84 % 1008,7 hPa 0,0 l/m 2,8 km/h N 4,6 C 7,1 C 7,6 km/h
29.11.2009 13:00 8,0 C 80 % 1008,4 hPa 0,0 l/m 5,1 km/h N-NO 4,8 C 8,0 C 10,1 km/h
29.11.2009 14:00 8,2 C 78 % 1008,4 hPa 0,0 l/m 3,8 km/h NW 4,6 C 8,2 C 8,4 km/h
29.11.2009 15:00 7,1 C 78 % 1008,5 hPa 0,0 l/m 0,9 km/h NW 3,6 C 7,1 C 3,6 km/h
29.11.2009 16:00 5,7 C 80 % 1008,3 hPa 0,0 l/m 0,1 km/h N 2,5 C 5,7 C 0,8 km/h
29.11.2009 17:00 4,2 C 84 % 1007,8 hPa 0,0 l/m 0,1 km/h N 1,7 C 4,2 C 1,2 km/h
29.11.2009 18:00 3,3 C 86 % 1007,2 hPa 0,0 l/m 0,0 km/h N 1,1 C 3,3 C 0,0 km/h
29.11.2009 19:00 2,3 C 87 % 1006,9 hPa 0,0 l/m 0,0 km/h N 0,2 C 2,3 C 0,4 km/h
29.11.2009 20:00 1,3 C 87 % 1006,5 hPa 0,0 l/m 0,0 km/h N -0,6 C 1,3 C 0,0 km/h
29.11.2009 21:00 0,8 C 89 % 1005,9 hPa 0,0 l/m 0,0 km/h N -0,9 C 0,8 C 0,8 km/h
29.11.2009 22:00 1,0 C 90 % 1005,5 hPa 0,0 l/m 0,2 km/h N -0,4 C 1,0 C 2,8 km/h
29.11.2009 23:00 1,7 C 90 % 1004,9 hPa 0,0 l/m 0,2 km/h N 0,3 C 1,7 C 3,2 km/h
Min-Datum _ 29.11.09 23.11.09 29.11.09 - 23.11.09 - 29.11.09 29.11.09 23.11.09
_ Min-Zeit 02:45 14:30 23:45 - 02:15 - 02:45 02:45 04:45
Minimum _ -1,8 C 47 % 1004,5 hPa - 0,0 km/h - -3,2 C -1,8 C 0,0 km/h
Max-Datum _ 25.11.09 23.11.09 23.11.09 23.11.09 24.11.09 - 24.11.09 25.11.09 24.11.09
_ Max-Zeit 13:45 10:00 00:15 07:15 08:15 - 19:45 14:00 08:15
Maximum _ 14,9 C 94 % 1018,4 hPa 1,0 l/m 21,2 km/h
W-NW
- 9,0 C 14,9 C 51,5 km/h
W-SW
Durchschnitt _ 6,5 C 81 % 1014,1 hPa #3,9 l/m 2,2 km/h W 3,3 C 6,1 C 7,3 km/h